Latest Weather Observations for Murrurundi Gap

IDN60801

Issued at 8:32 am EST Thursday 29 June 2017 (issued every 30 minutes, with the page automatically refreshed every 10 minutes)

About weather observations | Map of weather stations | Latest weather observations for NSW | Other Formats
Station Details ID: 061392 Name: MURRURUNDI GAP AWS Lat: -31.74 Lon: 150.79 Height: 729.4 m
Data from the previous 72 hours. | See also: Recent months at Murrurundi Gap
Date/Time
EST
Temp
°C
App
Temp
°C
Dew
Point
°C
Rel
Hum
%
Delta-T
°C
Wind Press
QNH
hPa
Press
MSL
hPa
Rain since
9am
mm
Dir  Spd
km/h
Gust
km/h
Spd
kts
Gust
kts
29/08:30am 8.9 7.3 8.8 99 0.1 ESE 7 9 4 5 1022.2 1022.2 17.2
29/08:00am 8.8 6.8 8.7 99 0.1 SE 9 11 5 6 1021.8 1021.8 16.0
29/07:38am 8.8 6.4 8.7 99 0.1 SE 11 13 6 7 1021.5 1021.5 15.0
29/07:37am 8.9 6.5 8.8 99 0.1 SE 11 13 6 7 1021.5 1021.5 15.0
29/07:30am 8.8 6.8 8.7 99 0.1 SE 9 11 5 6 1021.4 1021.4 14.6
29/07:00am 8.5 6.0 8.4 99 0.1 SE 11 13 6 7 1021.3 1021.3 13.8
29/06:39am 8.7 6.7 8.6 99 0.1 SE 9 9 5 5 1021.7 1021.6 12.2
29/06:30am 8.7 7.1 8.6 99 0.1 SE 7 9 4 5 1021.5 1021.5 11.6
29/06:26am 8.7 7.1 8.6 99 0.1 ESE 7 7 4 4 1021.5 1021.5 11.2
29/06:00am 8.7 5.9 8.6 99 0.1 SSE 13 17 7 9 1021.3 1021.3 9.4
29/05:30am 8.8 5.3 8.7 99 0.1 SE 17 20 9 11 1020.2 1020.1 9.4
29/05:00am 9.0 6.7 8.9 99 0.1 SE 11 15 6 8 1020.4 1020.3 9.4
29/04:50am 9.4 7.9 9.3 99 0.1 SE 7 9 4 5 1020.7 1020.7 9.4
29/04:30am 10.3 8.7 10.1 99 0.1 NNW 9 11 5 6 1020.8 1020.8 9.4
29/04:15am 10.3 8.7 10.1 99 0.1 NW 9 13 5 7 1020.9 1020.9 9.4
29/04:10am 10.3 8.7 10.1 99 0.1 NW 9 9 5 5 1020.9 1020.9 9.4
29/04:04am 10.4 8.8 10.2 99 0.1 NNW 9 11 5 6 1020.9 1020.9 9.2
29/04:00am 10.3 8.7 10.1 99 0.1 NNW 9 11 5 6 1020.9 1020.9 9.2
29/03:30am 10.2 7.8 10.1 99 0.1 WNW 13 17 7 9 1021.0 1021.0 9.2
29/03:19am 10.2 7.8 10.1 99 0.1 NW 13 15 7 8 1021.2 1021.2 9.0
29/03:04am 10.1 8.1 10.0 99 0.1 NW 11 13 6 7 1021.0 1021.0 9.0
29/03:00am 10.2 8.2 10.1 99 0.1 NW 11 15 6 8 1021.0 1021.0 9.0
29/02:54am 10.3 8.7 10.1 99 0.1 NW 9 15 5 8 1020.9 1020.9 9.0
29/02:35am 10.2 7.4 10.1 99 0.1 WNW 15 19 8 10 1021.0 1021.0 9.0
29/02:30am 10.4 7.3 10.2 99 0.1 WNW 17 19 9 10 1021.0 1021.0 9.0
29/02:00am 10.4 8.8 10.2 99 0.1 WNW 9 13 5 7 1020.8 1020.8 9.0
29/01:30am 10.4 8.8 10.2 99 0.1 NW 9 13 5 7 1020.9 1020.9 9.0
29/01:11am 10.2 8.2 10.2 100 0.0 NW 11 15 6 8 1021.0 1021.0 9.0
29/01:04am 10.3 8.7 10.1 99 0.1 NW 9 13 5 7 1021.1 1021.1 9.0
29/01:00am 10.2 8.6 10.2 100 0.0 WNW 9 17 5 9 1021.0 1021.0 9.0
29/12:30am 10.1 7.7 10.0 99 0.1 WNW 13 17 7 9 1022.0 1022.0 9.0
29/12:00am 9.8 7.3 9.7 99 0.1 NW 13 17 7 9 1022.5 1022.5 9.0
 
Date/Time
EST
Temp
°C
App
Temp
°C
Dew
Point
°C
Rel
Hum
%
Delta-T
°C
Wind Press
QNH
hPa
Press
MSL
hPa
Rain since
9am
mm
Dir  Spd
km/h
Gust
km/h
Spd
kts
Gust
kts
28/11:30pm 9.9 6.3 9.8 99 0.1 WNW 19 20 10 11 1022.9 1023.0 9.0
28/11:26pm 10.0 6.4 9.9 99 0.1 NW 19 20 10 11 1023.1 1023.1 9.0
28/11:00pm 9.7 6.4 9.6 99 0.1 WNW 17 20 9 11 1022.8 1022.8 9.0
28/10:57pm 9.5 6.5 9.4 99 0.1 WNW 15 20 8 11 1022.9 1023.0 9.0
28/10:49pm 10.1 8.1 10.1 100 0.0 WNW 11 13 6 7 1022.7 1022.7 9.0
28/10:30pm 9.6 9.1 9.5 99 0.1 SW 2 7 1 4 1022.7 1022.7 9.0
28/10:28pm 9.5 9.0 9.4 99 0.1 SSW 2 6 1 3 1022.8 1022.8 9.0
28/10:09pm 8.7 6.7 8.6 99 0.1 ESE 9 11 5 6 1022.9 1023.0 9.0
28/10:00pm 8.8 6.8 8.7 99 0.1 ESE 9 11 5 6 1022.7 1022.7 9.0
28/09:30pm 9.0 7.1 8.9 99 0.1 ESE 9 11 5 6 1023.2 1023.2 9.0
28/09:22pm 9.0 6.7 8.9 99 0.1 SE 11 13 6 7 1023.3 1023.3 9.0
28/09:15pm 9.0 6.7 8.9 99 0.1 SE 11 13 6 7 1023.2 1023.2 9.0
28/09:04pm 9.0 7.1 8.9 99 0.1 ESE 9 11 5 6 1023.2 1023.2 9.0
28/09:00pm 8.9 6.5 8.8 99 0.1 ESE 11 11 6 6 1022.9 1023.0 9.0
28/08:30pm 9.0 6.3 8.9 99 0.1 SE 13 15 7 8 1023.1 1023.1 9.0
28/08:21pm 9.0 6.7 8.9 99 0.1 ESE 11 13 6 7 1023.1 1023.1 8.8
28/08:20pm 9.0 6.7 8.9 99 0.1 ESE 11 13 6 7 1023.1 1023.1 8.8
28/08:00pm 9.0 7.1 8.9 99 0.1 SE 9 11 5 6 1023.3 1023.3 8.8
28/07:30pm 9.0 6.3 8.9 99 0.1 SE 13 15 7 8 1022.9 1023.0 8.8
28/07:00pm 9.0 5.5 8.9 99 0.1 ESE 17 20 9 11 1022.5 1022.5 8.6
28/06:37pm 9.0 5.9 8.9 99 0.1 ESE 15 17 8 9 1022.7 1022.7 8.2
28/06:30pm 9.0 6.3 8.9 99 0.1 ESE 13 17 7 9 1022.6 1022.6 8.0
28/06:27pm 9.0 6.3 8.9 99 0.1 SE 13 15 7 8 1022.7 1022.7 8.0
28/06:00pm 9.1 6.0 9.0 99 0.1 ESE 15 17 8 9 1022.8 1022.8 7.6
28/05:30pm 9.1 6.4 9.0 99 0.1 ESE 13 15 7 8 1022.7 1022.7 7.4
28/05:00pm 9.3 6.7 9.2 99 0.1 SE 13 17 7 9 1022.8 1022.8 6.2
28/04:30pm 9.5 6.9 9.4 99 0.1 SE 13 17 7 9 1022.3 1022.3 6.0
28/04:00pm 9.4 6.4 9.3 99 0.1 SE 15 20 8 11 1022.3 1022.3 6.0
28/03:36pm 9.8 7.3 9.7 99 0.1 SSE 13 17 7 9 1022.2 1022.2 6.0
28/03:30pm 9.9 8.2 9.8 99 0.1 SE 9 13 5 7 1022.5 1022.5 5.8
28/03:14pm 10.1 8.8 10.0 99 0.1 SSE 7 13 4 7 1022.3 1022.3 5.8
28/03:00pm 10.5 10.6 10.3 99 0.1 CALM 0 0 0 0 1022.3 1022.3 5.6
28/02:30pm 10.4 8.8 10.2 99 0.1 W 9 11 5 6 1022.2 1022.2 4.4
28/02:00pm 10.3 7.9 10.1 99 0.1 WNW 13 15 7 8 1022.1 1022.1 4.2
28/01:30pm 10.3 7.9 10.1 99 0.1 WNW 13 15 7 8 1022.2 1022.2 4.0
28/01:00pm 10.4 7.7 10.2 99 0.1 W 15 20 8 11 1022.5 1022.5 3.8
28/12:30pm 10.7 8.4 10.5 99 0.1 WNW 13 15 7 8 1022.5 1022.5 2.8
28/12:06pm 10.5 8.5 10.3 99 0.1 WNW 11 15 6 8 1022.9 1023.0 2.6
28/12:00pm 10.6 8.3 10.4 99 0.1 WNW 13 15 7 8 1023.2 1023.2 2.6
28/11:40am 10.3 8.3 10.1 99 0.1 WNW 11 13 6 7 1023.3 1023.3 2.4
28/11:38am 10.3 8.3 10.1 99 0.1 WNW 11 13 6 7 1023.4 1023.4 2.4
28/11:30am 10.3 8.3 10.1 99 0.1 WNW 11 15 6 8 1023.5 1023.5 2.4
28/11:02am 10.3 7.1 9.8 97 0.3 NW 17 20 9 11 1024.2 1024.3 1.2
28/11:00am 10.4 7.2 9.8 96 0.3 NW 17 20 9 11 1024.3 1024.4 1.0
28/10:30am 10.3 8.1 9.2 93 0.6 NW 11 17 6 9 1024.2 1024.3 0.6
28/10:00am 11.0 8.8 7.9 81 1.6 WNW 9 15 5 8 1024.3 1024.4 0.2
28/09:30am 11.3 9.0 7.6 78 1.9 WNW 9 11 5 6 1024.2 1024.3 0.0
28/09:00am 11.3 9.0 7.6 78 1.9 WNW 9 9 5 5 1024.0 1024.0 3.0
28/08:30am 10.4 9.9 7.8 84 1.3 CALM 0 0 0 0 1024.1 1024.2 3.0
28/08:00am 9.5 8.1 8.9 96 0.3 ESE 6 7 3 4 1023.9 1023.9 3.0
28/07:30am 10.1 9.3 8.2 88 1.0 WNW 2 7 1 4 1024.1 1024.2 3.0
28/07:00am 9.3 9.0 8.5 95 0.4 CALM 0 0 0 0 1023.9 1023.9 3.0
28/06:30am 10.0 9.1 7.8 86 1.1 W 2 7 1 4 1024.0 1024.0 3.0
28/06:00am 9.8 9.5 8.7 93 0.6 CALM 0 0 0 0 1024.1 1024.2 2.8
28/05:30am 9.5 7.9 8.7 95 0.4 SSE 7 11 4 6 1023.7 1023.7 2.6
28/05:00am 9.9 9.6 8.5 91 0.7 CALM 0 0 0 0 1023.5 1023.5 2.6
28/04:35am 10.0 9.8 9.2 95 0.4 CALM 0 0 0 0 1023.7 1023.7 2.4
28/04:30am 9.9 9.8 9.4 97 0.3 CALM 0 0 0 0 1023.8 1023.8 2.2
28/04:04am 9.6 8.0 8.8 95 0.4 SW 7 9 4 5 1023.9 1023.9 2.2
28/04:00am 9.9 8.0 9.1 95 0.4 WSW 9 9 5 5 1023.7 1023.7 2.2
28/03:30am 9.7 9.2 9.2 97 0.3 SW 2 7 1 4 1024.1 1024.2 1.8
28/03:00am 9.4 8.3 8.6 95 0.4 SE 4 7 2 4 1023.9 1023.9 1.4
28/02:30am 8.4 6.1 7.3 93 0.5 ESE 9 11 5 6 1024.0 1024.0 0.8
28/02:00am 7.8 5.4 7.1 95 0.3 SE 9 11 5 6 1023.9 1023.9 0.4
28/01:30am 10.4 8.4 8.5 88 1.0 WNW 9 11 5 6 1024.1 1024.2 0.0
28/01:00am 9.4 7.3 6.5 82 1.4 ESE 7 9 4 5 1024.0 1024.0 0.0
28/12:30am 8.5 6.4 6.6 88 0.9 ESE 7 9 4 5 1023.7 1023.7 0.0
28/12:00am 10.0 8.0 6.2 77 1.8 ESE 6 7 3 4 1023.8 1023.8 0.0
 
Date/Time
EST
Temp
°C
App
Temp
°C
Dew
Point
°C
Rel
Hum
%
Delta-T
°C
Wind Press
QNH
hPa
Press
MSL
hPa
Rain since
9am
mm
Dir  Spd
km/h
Gust
km/h
Spd
kts
Gust
kts
27/11:30pm 10.0 8.4 6.3 78 1.8 S 4 9 2 5 1023.9 1023.9 0.0
27/11:00pm 10.2 9.4 6.4 77 1.8 CALM 0 0 0 0 1024.6 1024.6 0.0
27/10:30pm 10.6 10.0 7.3 80 1.6 CALM 0 0 0 0 1024.3 1024.4 0.0
27/10:00pm 9.0 6.4 6.1 82 1.4 ESE 9 11 5 6 1023.9 1023.9 0.0
27/09:30pm 8.7 6.2 6.5 86 1.1 SE 9 11 5 6 1023.9 1023.9 0.0
27/09:00pm 10.9 10.0 6.1 72 2.3 CALM 0 0 0 0 1024.1 1024.2 0.0
27/08:30pm 9.8 7.5 7.4 85 1.2 SE 9 11 5 6 1024.0 1024.0 0.0
27/08:00pm 10.2 8.5 7.6 84 1.3 SE 6 7 3 4 1024.7 1024.7 0.0
27/07:30pm 9.6 7.7 7.4 86 1.1 ESE 7 9 4 5 1024.4 1024.5 0.0
27/07:00pm 9.6 6.8 7.0 84 1.3 SE 11 11 6 6 1024.0 1024.0 0.0
27/06:30pm 9.8 7.4 6.9 82 1.4 ESE 9 11 5 6 1023.9 1023.9 0.0
27/06:00pm 10.6 8.7 6.7 77 1.9 SE 6 9 3 5 1023.8 1023.8 0.0
27/05:30pm 10.7 8.6 6.8 77 1.9 SE 7 9 4 5 1023.9 1023.9 0.0
27/05:00pm 10.5 8.4 6.6 77 1.9 SE 7 11 4 6 1023.5 1023.5 0.0
27/04:30pm 10.7 8.7 7.0 78 1.8 ESE 7 9 4 5 1023.7 1023.7 0.0
27/04:00pm 11.5 9.2 5.8 68 2.8 SE 7 11 4 6 1023.6 1023.6 0.0
27/03:30pm 11.4 8.9 6.7 73 2.3 E 9 11 5 6 1023.7 1023.7 0.0
27/03:00pm 11.3 8.6 5.8 69 2.7 SE 9 11 5 6 1023.8 1023.8 0.0
27/02:30pm 11.8 9.3 6.7 71 2.5 ESE 9 11 5 6 1024.0 1024.0 0.0
27/02:00pm 12.1 9.7 6.8 70 2.6 ESE 9 11 5 6 1024.1 1024.2 0.0
27/01:30pm 12.0 10.4 6.3 68 2.8 SE 4 7 2 4 1024.6 1024.6 0.0
27/01:00pm 12.1 9.8 5.7 65 3.1 ESE 7 11 4 6 1024.6 1024.6 0.0
27/12:30pm 14.5 11.0 5.3 54 4.5 N 13 22 7 12 1025.0 1025.0 0.0
27/12:00pm 11.6 9.3 5.7 67 2.8 ESE 7 11 4 6 1025.4 1025.5 0.0
27/11:30am 11.9 9.3 6.2 68 2.8 E 9 11 5 6 1025.7 1025.8 0.0
27/11:00am 10.9 8.2 5.7 70 2.5 ESE 9 11 5 6 1026.1 1026.1 0.0
27/10:30am 11.1 8.4 5.8 70 2.6 ESE 9 11 5 6 1026.3 1026.3 0.0
27/10:00am 10.8 7.9 6.6 75 2.1 ESE 11 13 6 7 1026.3 1026.3 0.0
27/09:30am 10.1 7.3 5.3 72 2.3 ESE 9 13 5 7 1026.2 1026.2 0.0
27/09:00am 9.4 6.1 4.8 73 2.1 ESE 11 13 6 7 1025.8 1025.9 0.0
27/08:30am 8.9 5.7 4.9 76 1.9 ESE 11 13 6 7 1025.7 1025.8 0.0
27/08:00am 7.2 3.1 2.5 72 2.0 ESE 13 15 7 8 1025.5 1025.6 0.0
27/07:30am 6.0 1.5 1.9 75 1.7 ESE 15 17 8 9 1025.2 1025.2 0.0
27/07:00am 5.9 1.4 2.2 77 1.6 SE 15 17 8 9 1024.9 1024.9 0.0
27/06:30am 5.8 1.3 2.1 77 1.6 SE 15 19 8 10 1024.6 1024.6 0.0
27/06:00am 5.9 1.4 2.4 78 1.5 ESE 15 17 8 9 1024.6 1024.6 0.0
27/05:30am 6.1 2.0 2.0 75 1.7 ESE 13 15 7 8 1024.6 1024.6 0.0
27/05:00am 5.9 1.4 2.0 76 1.6 ESE 15 17 8 9 1024.6 1024.6 0.0
27/04:30am 6.1 1.5 1.6 73 1.9 SE 15 17 8 9 1024.6 1024.6 0.0
27/04:00am 6.4 1.8 1.5 71 2.1 ESE 15 17 8 9 1024.4 1024.5 0.0
27/03:30am 6.4 2.1 1.3 70 2.1 ESE 13 15 7 8 1024.7 1024.7 0.0
27/03:00am 6.5 1.8 1.0 68 2.3 ESE 15 17 8 9 1024.3 1024.4 0.0
27/02:30am 6.9 2.3 1.6 69 2.2 ESE 15 19 8 10 1024.2 1024.3 0.0
27/02:00am 7.2 3.0 1.9 69 2.3 ESE 13 15 7 8 1024.4 1024.5 0.0
27/01:30am 7.9 3.8 2.2 67 2.5 ESE 13 13 7 7 1024.4 1024.5 0.0
27/01:00am 8.2 4.1 2.0 65 2.7 ESE 13 15 7 8 1024.2 1024.3 0.0
27/12:30am 7.9 3.8 2.0 66 2.5 ESE 13 15 7 8 1024.3 1024.4 0.0
27/12:00am 7.6 3.5 2.3 69 2.3 ESE 13 17 7 9 1024.4 1024.5 0.0
 
Date/Time
EST
Temp
°C
App
Temp
°C
Dew
Point
°C
Rel
Hum
%
Delta-T
°C
Wind Press
QNH
hPa
Press
MSL
hPa
Rain since
9am
mm
Dir  Spd
km/h
Gust
km/h
Spd
kts
Gust
kts
26/11:30pm 7.8 3.7 2.5 69 2.3 ESE 13 15 7 8 1024.8 1024.8 0.0
26/11:00pm 8.0 4.0 2.9 70 2.2 ESE 13 15 7 8 1025.1 1025.1 0.0
26/10:30pm 7.6 3.3 3.1 73 2.0 ESE 15 15 8 8 1025.0 1025.0 0.0
26/10:00pm 8.2 3.9 3.5 72 2.1 SE 15 17 8 9 1024.8 1024.8 0.0
26/09:30pm 8.3 4.1 3.8 73 2.0 SE 15 17 8 9 1024.7 1024.7 0.0
26/09:00pm 8.3 4.1 3.9 74 2.0 ESE 15 17 8 9 1024.6 1024.6 0.0
26/08:30pm 8.6 4.9 4.4 75 1.9 SE 13 15 7 8 1024.3 1024.4 0.0
26/08:00pm 9.2 5.5 4.6 73 2.1 ESE 13 13 7 7 1024.2 1024.3 0.0
26/07:30pm 9.4 6.2 5.2 75 2.0 ESE 11 13 6 7 1024.0 1024.0 0.0
26/07:00pm 9.7 6.9 5.1 73 2.2 SE 9 11 5 6 1024.0 1024.0 0.0
26/06:30pm 10.0 6.7 4.8 70 2.4 SSE 11 13 6 7 1023.7 1023.7 0.0
26/06:00pm 9.9 6.7 4.9 71 2.3 SE 11 13 6 7 1023.3 1023.3 0.0
26/05:30pm 11.0 8.2 5.1 67 2.8 SE 9 11 5 6 1022.7 1022.7 0.0
26/05:00pm 12.3 11.1 4.5 59 3.7 CALM 0 0 0 0 1022.4 1022.4 0.0
26/04:30pm 13.0 11.7 4.2 55 4.2 CALM 0 0 0 0 1022.3 1022.3 0.0
26/04:00pm 13.4 11.9 4.8 56 4.1 E 2 6 1 3 1022.3 1022.3 0.0
26/03:30pm 13.5 10.9 4.4 54 4.4 SSE 7 11 4 6 1022.4 1022.4 0.0
26/03:00pm 14.5 10.4 4.2 50 4.9 W 15 20 8 11 1022.3 1022.3 0.0
26/02:30pm 14.7 10.3 4.7 51 4.9 NW 17 20 9 11 1022.1 1022.1 0.0
26/02:00pm 14.6 10.7 5.4 54 4.5 NW 15 20 8 11 1022.2 1022.2 0.0
26/01:30pm 14.8 11.4 5.9 55 4.4 WNW 13 20 7 11 1022.2 1022.2 0.0
26/01:00pm 14.1 10.4 4.7 53 4.5 WNW 13 20 7 11 1022.2 1022.2 0.0
26/12:30pm 13.8 10.9 4.7 54 4.4 W 9 13 5 7 1022.4 1022.4 0.0
26/12:00pm 12.8 10.6 5.2 60 3.7 ESE 6 11 3 6 1022.7 1022.7 0.0
26/11:30am 12.9 10.8 5.8 62 3.5 E 6 9 3 5 1022.9 1023.0 0.0
26/11:00am 12.5 9.9 6.1 65 3.1 E 9 11 5 6 1023.3 1023.3 0.0
26/10:30am 11.9 8.7 7.0 72 2.4 ESE 13 15 7 8 1023.4 1023.4 0.0
26/10:00am 10.9 7.6 6.5 74 2.1 ESE 13 17 7 9 1023.5 1023.5 0.0
26/09:30am 10.8 6.6 5.8 71 2.4 ESE 17 20 9 11 1023.3 1023.3 0.0
26/09:00am 10.6 6.9 6.4 75 2.0 ESE 15 19 8 10 1023.1 1023.1 2.0

Other Formats:

Comma delimited format used in spreadsheet applications
http://www.bom.gov.au/fwo/IDN60801/IDN60801.95747.axf

JavaScript Object Notation format (JSON) in row-major order
http://www.bom.gov.au/fwo/IDN60801/IDN60801.95747.json